Time;durP1;ratioP1;P1;durP2;ratioP2;P2;SDS_P1;SDS_P2;PMS_P1;PMS_P2;Temp;Humidity;BMP_temperature;BMP_pressure;BME280_temperature;BME280_humidity;BME280_pressure;Samples;Min_cycle;Max_cycle;Signal;HPM_P1;HPM_P2
2021/03/19 00:01:08;;;;;;;65.68;28.10;;;-3.20;99.90;;;;;;6217430;23;20872;-76
2021/03/19 00:03:34;;;;;;;71.10;30.48;;;-3.20;99.90;;;;;;6239655;23;20121;-76
2021/03/19 00:06:00;;;;;;;75.93;31.45;;;-3.20;99.90;;;;;;6241820;23;20380;-76
2021/03/19 00:08:26;;;;;;;78.50;30.38;;;-3.10;99.90;;;;;;6240250;23;20425;-76
2021/03/19 00:10:53;;;;;;;71.95;30.60;;;-3.10;99.90;;;;;;6213147;23;20039;-76
2021/03/19 00:13:19;;;;;;;74.43;31.65;;;-3.00;99.90;;;;;;6215891;23;20024;-76
2021/03/19 00:15:45;;;;;;;77.63;34.40;;;-2.90;99.90;;;;;;6215645;23;20461;-76
2021/03/19 00:18:11;;;;;;;83.47;36.45;;;-2.80;99.90;;;;;;6239933;23;20095;-76
2021/03/19 00:20:40;;;;;;;86.32;37.28;;;-2.70;99.90;;;;;;6239928;23;20409;-74
2021/03/19 00:23:07;;;;;;;101.95;42.88;;;-2.70;99.90;;;;;;6244359;23;20020;-76
2021/03/19 00:25:33;;;;;;;79.68;34.97;;;-2.60;99.90;;;;;;6242367;23;20031;-76
2021/03/19 00:28:00;;;;;;;75.18;33.58;;;-2.50;99.90;;;;;;6216973;23;20465;-76
2021/03/19 00:30:26;;;;;;;66.03;29.52;;;-2.40;99.90;;;;;;6215432;23;20027;-76
2021/03/19 00:32:52;;;;;;;62.00;25.98;;;-2.40;99.90;;;;;;6215134;23;20060;-76
2021/03/19 00:35:18;;;;;;;49.58;23.17;;;-2.30;99.90;;;;;;6245082;23;20027;-76
2021/03/19 00:37:44;;;;;;;52.47;24.65;;;-2.20;99.90;;;;;;6215225;23;20067;-77
2021/03/19 00:40:14;;;;;;;55.38;26.50;;;-2.20;99.90;;;;;;6241739;23;20461;-76
2021/03/19 00:42:42;;;;;;;57.42;26.27;;;-2.10;99.90;;;;;;6241694;23;20269;-76
2021/03/19 00:45:11;;;;;;;58.00;25.25;;;-2.00;99.90;;;;;;6218336;23;20047;-76
2021/03/19 00:47:37;;;;;;;54.13;25.90;;;-1.90;99.90;;;;;;6241708;23;20043;-76
2021/03/19 00:50:09;;;;;;;57.03;25.70;;;-1.90;99.90;;;;;;6215603;23;20884;-76
2021/03/19 00:52:36;;;;;;;59.70;27.55;;;-1.80;99.90;;;;;;6219515;23;20098;-76
2021/03/19 00:55:08;;;;;;;52.00;25.15;;;-1.80;99.90;;;;;;6241992;23;20040;-76
2021/03/19 00:57:34;;;;;;;58.22;27.08;;;-1.80;99.90;;;;;;6217006;23;20020;-76
2021/03/19 01:00:01;;;;;;;54.83;27.40;;;-1.80;99.90;;;;;;6214908;23;20207;-75
2021/03/19 01:02:27;;;;;;;61.38;28.23;;;-1.70;99.90;;;;;;6241605;23;20035;-75
2021/03/19 01:04:54;;;;;;;51.03;26.90;;;-1.70;99.90;;;;;;6244927;23;20024;-76
2021/03/19 01:07:19;;;;;;;53.90;25.90;;;-1.70;99.90;;;;;;6243707;23;20318;-76
2021/03/19 01:09:46;;;;;;;49.78;24.63;;;-1.70;99.90;;;;;;6241387;23;20465;-75
2021/03/19 01:12:12;;;;;;;47.45;25.08;;;-1.70;99.90;;;;;;6214911;23;20023;-76
2021/03/19 01:14:39;;;;;;;51.05;25.25;;;-1.60;99.90;;;;;;6241775;23;20054;-76
2021/03/19 01:17:05;;;;;;;54.22;25.13;;;-1.60;99.90;;;;;;6241886;23;20074;-76
2021/03/19 01:19:31;;;;;;;54.55;25.92;;;-1.50;99.90;;;;;;6241715;23;20066;-75
2021/03/19 01:21:57;;;;;;;52.08;25.33;;;-1.50;99.90;;;;;;6214571;23;20389;-76
2021/03/19 01:24:23;;;;;;;44.13;23.10;;;-1.50;99.90;;;;;;6245778;23;20026;-76
2021/03/19 01:26:49;;;;;;;42.35;21.38;;;-1.50;99.90;;;;;;6241735;23;20047;-75
2021/03/19 01:29:15;;;;;;;43.90;22.65;;;-1.40;99.90;;;;;;6216928;23;20031;-76
2021/03/19 01:31:41;;;;;;;47.55;22.38;;;-1.40;99.90;;;;;;6241611;23;20031;-76
2021/03/19 01:34:07;;;;;;;44.33;22.35;;;-1.40;99.90;;;;;;6240972;23;20027;-76
2021/03/19 01:36:33;;;;;;;45.80;21.98;;;-1.30;99.90;;;;;;6244723;23;20024;-75
2021/03/19 01:39:00;;;;;;;48.58;23.13;;;-1.30;99.90;;;;;;6241456;23;20044;-76
2021/03/19 01:41:26;;;;;;;41.45;21.35;;;-1.30;99.90;;;;;;6214575;23;20020;-76
2021/03/19 01:44:07;;;;;;;44.17;22.42;;;-1.20;99.90;;;;;;6241459;23;20028;-76
2021/03/19 01:47:11;;;;;;;41.25;21.02;;;-1.20;99.90;;;;;;6241370;23;20543;-76
2021/03/19 01:50:15;;;;;;;40.78;21.50;;;-1.10;99.90;;;;;;6245446;23;20031;-76
2021/03/19 01:53:18;;;;;;;38.45;19.40;;;-1.10;99.90;;;;;;6189002;23;20542;-75
2021/03/19 01:56:22;;;;;;;40.55;20.00;;;-1.10;99.90;;;;;;6215510;23;20477;-76
2021/03/19 01:59:25;;;;;;;51.45;23.17;;;-1.10;99.90;;;;;;6239039;23;20059;-75
2021/03/19 02:02:11;;;;;;;;;;;-1.10;99.90;;;;;;6214770;23;20020;-76
2021/03/19 02:05:14;;;;;;;50.05;22.05;;;-1.00;99.90;;;;;;6241245;23;19920;-75
2021/03/19 02:08:18;;;;;;;45.58;22.88;;;-1.00;99.90;;;;;;6243216;23;20020;-76
2021/03/19 02:11:21;;;;;;;43.88;21.25;;;-1.10;99.90;;;;;;6189330;23;20056;-76
2021/03/19 02:14:44;;;;;;;52.78;24.15;;;-1.10;99.90;;;;;;6245209;23;20081;-76
2021/03/19 02:17:47;;;;;;;59.83;26.30;;;-1.10;99.90;;;;;;6177445;23;20100;-76
2021/03/19 02:20:50;;;;;;;55.78;25.10;;;-1.10;99.90;;;;;;6177541;23;20036;-76
2021/03/19 02:23:53;;;;;;;50.20;23.98;;;-1.00;99.90;;;;;;6240925;23;20105;-75
2021/03/19 02:26:57;;;;;;;49.60;22.67;;;-1.00;99.90;;;;;;6241032;23;20024;-77
2021/03/19 02:30:01;;;;;;;54.47;25.00;;;-1.00;99.90;;;;;;6241163;23;20421;-76
2021/03/19 02:32:28;;;;;;;60.53;27.25;;;-0.90;99.90;;;;;;6244781;23;20047;-76
2021/03/19 02:34:57;;;;;;;57.28;25.50;;;-0.90;99.90;;;;;;6214336;23;20460;-76
2021/03/19 02:37:26;;;;;;;56.05;26.35;;;-0.80;99.90;;;;;;6214104;23;20020;-76
2021/03/19 02:39:53;;;;;;;51.75;24.67;;;-0.80;99.90;;;;;;6240461;23;20436;-76
2021/03/19 02:42:24;;;;;;;52.83;23.63;;;-0.80;99.90;;;;;;6240840;23;20078;-76
2021/03/19 02:44:50;;;;;;;51.90;24.58;;;-0.80;99.90;;;;;;6213975;23;20020;-76
2021/03/19 02:47:16;;;;;;;55.22;25.83;;;-0.80;99.90;;;;;;6214025;23;20081;-77
2021/03/19 02:49:42;;;;;;;53.45;25.20;;;-0.70;99.90;;;;;;6213954;23;20481;-76
2021/03/19 02:52:08;;;;;;;55.50;24.75;;;-0.70;99.90;;;;;;6217581;23;20031;-76
2021/03/19 02:54:35;;;;;;;57.38;26.25;;;-0.70;99.90;;;;;;6216669;23;20027;-76
2021/03/19 02:57:04;;;;;;;64.57;29.20;;;-0.60;99.90;;;;;;6240612;23;20040;-76
2021/03/19 02:59:30;;;;;;;67.78;31.50;;;-0.60;99.90;;;;;;6213876;23;20024;-76
2021/03/19 03:01:56;;;;;;;71.93;32.65;;;-0.70;99.90;;;;;;6244881;23;20449;-76
2021/03/19 03:04:22;;;;;;;68.15;31.48;;;-0.70;99.90;;;;;;6240991;23;20477;-76
2021/03/19 03:06:52;;;;;;;68.68;31.15;;;-0.70;99.90;;;;;;6242791;23;20082;-76
2021/03/19 03:09:21;;;;;;;70.50;32.88;;;-0.70;99.90;;;;;;6241453;23;20354;-77
2021/03/19 03:11:48;;;;;;;73.20;33.53;;;-0.60;99.90;;;;;;6240567;23;20138;-76
2021/03/19 03:14:17;;;;;;;68.45;30.63;;;-0.60;99.90;;;;;;6216533;23;20023;-76
2021/03/19 03:16:45;;;;;;;67.50;31.23;;;-0.60;99.90;;;;;;6240289;23;20016;-76
2021/03/19 03:19:14;;;;;;;72.45;32.47;;;-0.60;99.90;;;;;;6213545;23;20485;-76
2021/03/19 03:21:41;;;;;;;66.90;33.10;;;-0.50;99.90;;;;;;6244340;23;20457;-77
2021/03/19 03:24:09;;;;;;;71.18;33.72;;;-0.50;99.90;;;;;;6213495;23;20098;-76
2021/03/19 03:26:35;;;;;;;71.80;33.88;;;-0.50;99.90;;;;;;6215328;23;20020;-76
2021/03/19 03:29:01;;;;;;;72.30;33.45;;;-0.40;99.90;;;;;;6240601;23;20020;-76
2021/03/19 03:31:28;;;;;;;66.63;32.60;;;-0.40;99.90;;;;;;6240389;23;20051;-77
2021/03/19 03:33:54;;;;;;;65.53;32.28;;;-0.40;99.90;;;;;;6216379;23;20028;-76
2021/03/19 03:36:20;;;;;;;65.00;32.88;;;-0.40;99.90;;;;;;6240585;23;20020;-76
2021/03/19 03:38:47;;;;;;;69.72;32.10;;;-0.30;99.90;;;;;;6240214;23;20027;-76
2021/03/19 03:41:17;;;;;;;73.25;34.33;;;-0.30;99.90;;;;;;6240303;23;20031;-76
2021/03/19 03:43:43;;;;;;;75.18;33.85;;;-0.30;99.90;;;;;;6216753;23;20023;-76
2021/03/19 03:46:13;;;;;;;70.78;32.72;;;-0.30;99.90;;;;;;6240267;23;20020;-76
2021/03/19 03:48:40;;;;;;;72.85;32.88;;;-0.30;99.90;;;;;;6239989;23;20031;-75
2021/03/19 03:51:08;;;;;;;72.05;31.27;;;-0.30;99.90;;;;;;6240345;23;20392;-75
2021/03/19 03:53:36;;;;;;;68.90;29.65;;;-0.30;99.90;;;;;;6213802;23;20035;-76
2021/03/19 03:56:02;;;;;;;70.65;31.35;;;-0.30;99.90;;;;;;6215632;23;20151;-76
2021/03/19 03:58:28;;;;;;;71.63;33.95;;;-0.30;99.90;;;;;;6240003;23;20367;-77
2021/03/19 04:00:55;;;;;;;69.50;31.75;;;-0.30;99.90;;;;;;6239753;23;20024;-77
2021/03/19 04:03:21;;;;;;;70.72;31.35;;;-0.20;99.90;;;;;;6243355;23;20488;-76
2021/03/19 04:05:48;;;;;;;64.68;31.55;;;-0.20;99.90;;;;;;6215557;23;20020;-76
2021/03/19 04:08:18;;;;;;;66.03;31.13;;;-0.20;99.90;;;;;;6239929;23;20461;-76
2021/03/19 04:10:45;;;;;;;60.38;29.23;;;-0.10;99.90;;;;;;6213083;23;20028;-76
2021/03/19 04:13:12;;;;;;;51.90;26.63;;;-0.10;99.90;;;;;;6243193;23;20159;-76
2021/03/19 04:15:39;;;;;;;54.58;27.83;;;-0.20;99.90;;;;;;6240043;23;20023;-76
2021/03/19 04:18:09;;;;;;;44.05;22.30;;;-0.10;99.90;;;;;;6240267;23;20575;-76
2021/03/19 04:20:38;;;;;;;49.50;24.75;;;-0.20;99.90;;;;;;6213293;23;20477;-77
2021/03/19 04:23:04;;;;;;;41.47;21.70;;;-0.20;99.90;;;;;;6213421;23;20409;-77
2021/03/19 04:25:31;;;;;;;36.55;19.27;;;-0.20;99.90;;;;;;6239978;23;20019;-76
2021/03/19 04:28:01;;;;;;;38.33;20.33;;;-0.30;99.90;;;;;;6213219;23;20083;-76
2021/03/19 04:30:36;;;;;;;36.53;19.27;;;-0.30;99.90;;;;;;6213345;23;20048;-76
2021/03/19 04:33:02;;;;;;;40.42;21.50;;;-0.30;99.90;;;;;;6242918;23;20473;-76
2021/03/19 04:35:28;;;;;;;32.80;18.83;;;-0.20;99.90;;;;;;6239846;23;20044;-76
2021/03/19 04:38:01;;;;;;;35.45;20.20;;;-0.20;99.90;;;;;;6213143;23;20069;-76
2021/03/19 04:40:27;;;;;;;36.25;19.17;;;-0.20;99.90;;;;;;6243861;23;20020;-76
2021/03/19 04:42:55;;;;;;;37.13;19.40;;;-0.20;99.90;;;;;;6213232;23;20051;-76
2021/03/19 04:45:22;;;;;;;36.58;18.40;;;-0.20;99.90;;;;;;6240081;23;20024;-76
2021/03/19 04:47:48;;;;;;;36.47;19.38;;;-0.20;99.90;;;;;;6212915;23;20020;-76
2021/03/19 04:50:15;;;;;;;38.60;20.30;;;-0.20;99.90;;;;;;6213157;23;20040;-76
2021/03/19 04:52:43;;;;;;;37.63;20.75;;;-0.20;99.90;;;;;;6242718;23;20472;-76
2021/03/19 04:55:10;;;;;;;38.53;20.88;;;-0.20;99.90;;;;;;6241763;23;20024;-76
2021/03/19 04:57:37;;;;;;;39.03;20.40;;;-0.20;99.90;;;;;;6212669;23;20087;-76
2021/03/19 05:00:09;;;;;;;37.47;20.52;;;-0.10;99.90;;;;;;6240052;23;20024;-76
2021/03/19 05:02:44;;;;;;;47.42;21.98;;;-0.10;99.90;;;;;;6242521;23;20028;-76
2021/03/19 05:05:14;;;;;;;38.63;19.88;;;-0.10;99.90;;;;;;6211262;23;20099;-75
2021/03/19 05:07:40;;;;;;;37.65;20.17;;;-0.10;99.90;;;;;;6239578;23;20099;-76
2021/03/19 05:10:07;;;;;;;42.42;21.15;;;-0.10;99.90;;;;;;6216841;23;20063;-77
2021/03/19 05:12:34;;;;;;;40.20;21.10;;;0.00;99.90;;;;;;6241516;23;20100;-76
2021/03/19 05:15:00;;;;;;;38.15;20.00;;;0.00;99.90;;;;;;6214935;23;20812;-76
2021/03/19 05:17:26;;;;;;;37.45;19.77;;;0.00;99.90;;;;;;6241563;23;20020;-76
2021/03/19 05:19:52;;;;;;;38.10;20.20;;;0.00;99.90;;;;;;6241664;23;20546;-76
2021/03/19 05:22:18;;;;;;;40.88;21.77;;;-0.10;99.90;;;;;;6241823;23;20039;-76
2021/03/19 05:24:44;;;;;;;36.17;18.08;;;0.00;99.90;;;;;;6241837;23;20024;-76
2021/03/19 05:27:11;;;;;;;36.63;19.05;;;0.00;99.90;;;;;;6239739;23;20040;-76
2021/03/19 05:29:37;;;;;;;38.65;21.45;;;0.00;99.90;;;;;;6245380;23;20026;-76
2021/03/19 05:32:04;;;;;;;36.70;19.35;;;0.10;99.90;;;;;;6244730;23;20067;-75
2021/03/19 05:34:30;;;;;;;33.55;19.60;;;0.00;99.90;;;;;;6214486;23;20056;-77
2021/03/19 05:36:56;;;;;;;39.63;21.02;;;0.10;99.90;;;;;;6241564;23;20045;-76
2021/03/19 05:39:22;;;;;;;37.30;20.55;;;0.10;99.90;;;;;;6241554;23;20082;-76
2021/03/19 05:41:48;;;;;;;42.08;20.95;;;0.10;99.90;;;;;;6241296;23;20095;-76
2021/03/19 05:44:18;;;;;;;42.42;22.17;;;0.10;99.90;;;;;;6216273;23;20048;-76
2021/03/19 05:46:49;;;;;;;39.22;20.67;;;0.10;99.90;;;;;;6241508;23;20024;-77
2021/03/19 05:49:21;;;;;;;37.08;20.83;;;0.10;99.90;;;;;;6240927;23;20032;-76
2021/03/19 05:51:53;;;;;;;46.37;22.20;;;0.10;99.90;;;;;;6216986;23;20666;-77
2021/03/19 05:54:28;;;;;;;51.13;24.55;;;0.10;99.90;;;;;;6236235;23;20255;-78
2021/03/19 05:57:03;;;;;;;50.75;22.17;;;0.10;99.90;;;;;;6191119;23;20027;-78
2021/03/19 05:59:37;;;;;;;46.40;24.48;;;0.20;99.90;;;;;;6213469;23;20020;-78
2021/03/19 06:02:35;;;;;;;48.45;24.58;;;0.10;99.90;;;;;;6217916;23;20024;-78
2021/03/19 06:05:14;;;;;;;53.95;26.05;;;0.00;99.90;;;;;;6238405;23;20599;-75
2021/03/19 06:07:47;;;;;;;54.65;26.42;;;0.00;99.90;;;;;;6216560;23;20099;-74
2021/03/19 06:10:25;;;;;;;58.45;27.38;;;-0.10;99.90;;;;;;6214219;23;20044;-78
2021/03/19 06:13:25;;;;;;;54.08;27.30;;;-0.10;99.90;;;;;;6243475;23;20719;-78
2021/03/19 06:16:16;;;;;;;57.55;27.80;;;0.00;99.90;;;;;;6214515;23;20043;-67
2021/03/19 06:18:49;;;;;;;55.92;26.65;;;0.00;99.90;;;;;;6240341;23;20020;-70
2021/03/19 06:21:31;;;;;;;53.80;26.48;;;0.10;99.90;;;;;;6240666;23;20047;-73
2021/03/19 06:24:23;;;;;;;42.83;21.30;;;0.10;99.90;;;;;;6240627;23;20095;-68
2021/03/19 06:26:51;;;;;;;52.90;26.05;;;0.10;99.90;;;;;;6240237;23;20019;-71
2021/03/19 06:29:40;;;;;;;57.83;29.30;;;0.20;99.90;;;;;;6244478;23;20024;-76
2021/03/19 06:32:21;;;;;;;64.25;29.70;;;0.30;99.90;;;;;;6213536;23;20703;-72
2021/03/19 06:35:06;;;;;;;56.92;27.27;;;0.30;99.90;;;;;;6242271;23;20024;-77
2021/03/19 06:37:37;;;;;;;61.22;28.40;;;0.30;99.90;;;;;;6213604;23;20529;-73
2021/03/19 06:40:20;;;;;;;59.97;28.38;;;0.30;99.90;;;;;;6217036;23;20027;-75
2021/03/19 06:42:49;;;;;;;56.53;28.23;;;0.30;99.90;;;;;;6240484;23;20050;-71
2021/03/19 06:45:23;;;;;;;58.08;28.63;;;0.30;99.90;;;;;;6242536;23;20027;-64
2021/03/19 06:47:52;;;;;;;64.18;28.58;;;0.30;99.90;;;;;;6213597;23;20047;-68
2021/03/19 06:50:25;;;;;;;57.38;28.35;;;0.30;99.90;;;;;;6217903;23;20024;-65
2021/03/19 06:53:11;;;;;;;59.85;28.50;;;0.30;99.90;;;;;;6213729;23;20224;-65
2021/03/19 06:55:40;;;;;;;55.10;25.60;;;0.30;99.90;;;;;;6243893;23;20030;-65
2021/03/19 06:58:06;;;;;;;59.42;28.20;;;0.30;99.90;;;;;;6240658;23;20059;-66
2021/03/19 07:00:49;;;;;;;61.65;27.52;;;0.30;99.90;;;;;;6214068;23;20024;-64
2021/03/19 07:03:15;;;;;;;63.10;28.08;;;0.30;99.90;;;;;;6213698;23;20023;-68
2021/03/19 07:05:58;;;;;;;60.45;27.83;;;0.30;99.90;;;;;;6188626;23;20031;-67
2021/03/19 07:08:41;;;;;;;56.40;26.27;;;0.30;99.90;;;;;;6213657;23;20063;-69
2021/03/19 07:11:48;;;;;;;53.58;24.67;;;0.40;99.90;;;;;;6213408;23;20024;-69
2021/03/19 07:14:53;;;;;;;52.95;26.80;;;0.40;99.90;;;;;;6213296;23;20160;-69
2021/03/19 07:17:43;;;;;;;57.08;25.85;;;0.40;99.90;;;;;;6236022;23;20353;-70
2021/03/19 07:20:28;;;;;;;55.63;25.20;;;0.40;99.90;;;;;;6240203;23;20063;-70
2021/03/19 07:23:35;;;;;;;50.25;24.33;;;0.50;99.90;;;;;;6243454;23;20019;-70
2021/03/19 07:26:16;;;;;;;48.28;22.30;;;0.60;99.90;;;;;;6198366;23;20048;-68
2021/03/19 07:29:06;;;;;;;47.78;21.70;;;0.70;99.90;;;;;;6213368;23;20047;-67
2021/03/19 07:31:56;;;;;;;43.00;21.20;;;0.80;99.90;;;;;;6240065;23;20051;-68
2021/03/19 07:34:53;;;;;;;45.30;24.10;;;1.10;99.90;;;;;;6188530;23;20047;-69
2021/03/19 07:37:37;;;;;;;48.25;23.30;;;1.50;99.90;;;;;;6239970;23;20031;-70
2021/03/19 07:40:18;;;;;;;41.42;22.48;;;1.70;99.90;;;;;;6188965;23;20020;-69
2021/03/19 07:43:06;;;;;;;41.60;20.33;;;1.90;99.90;;;;;;6239875;23;20056;-69
2021/03/19 07:45:36;;;;;;;35.50;18.20;;;2.00;99.90;;;;;;6213517;23;20023;-70
2021/03/19 07:48:24;;;;;;;38.95;18.75;;;2.10;99.90;;;;;;6213355;23;20446;-71
2021/03/19 07:51:08;;;;;;;35.47;17.70;;;2.20;99.90;;;;;;6213618;23;20024;-77
2021/03/19 07:54:11;;;;;;;36.17;17.55;;;2.20;99.90;;;;;;6238855;23;20062;-72
2021/03/19 07:57:02;;;;;;;33.05;16.60;;;2.20;99.90;;;;;;6215701;23;20031;-71
2021/03/19 07:59:59;;;;;;;40.08;17.92;;;2.00;99.90;;;;;;6213050;23;20036;-69
2021/03/19 08:02:43;;;;;;;35.53;17.15;;;2.10;99.90;;;;;;6187701;23;20024;-67
2021/03/19 08:05:36;;;;;;;37.75;17.13;;;2.30;99.90;;;;;;6213361;23;20823;-70
2021/03/19 08:08:14;;;;;;;32.58;15.13;;;2.40;99.90;;;;;;6216294;23;20090;-70
2021/03/19 08:10:58;;;;;;;29.33;14.95;;;2.60;99.90;;;;;;6208403;23;20508;-66
2021/03/19 08:13:39;;;;;;;30.08;15.57;;;2.90;99.90;;;;;;6210966;23;20504;-70
2021/03/19 08:16:18;;;;;;;28.58;15.20;;;3.10;99.90;;;;;;6210636;23;20458;-63
2021/03/19 08:19:21;;;;;;;25.95;14.32;;;3.20;99.90;;;;;;6240973;23;20024;-67
2021/03/19 08:22:12;;;;;;;29.65;15.45;;;3.40;99.90;;;;;;6237676;23;20070;-68
2021/03/19 08:25:13;;;;;;;29.25;14.30;;;3.40;99.90;;;;;;6183459;23;20024;-68
2021/03/19 08:27:46;;;;;;;29.60;16.98;;;3.60;99.90;;;;;;6238510;23;20043;-68
2021/03/19 08:30:30;;;;;;;32.67;16.65;;;3.70;99.90;;;;;;6240486;23;20027;-66
2021/03/19 08:33:18;;;;;;;34.75;18.77;;;3.80;99.30;;;;;;6211379;23;20031;-63
2021/03/19 08:36:02;;;;;;;44.75;21.02;;;4.00;99.90;;;;;;6212464;23;20122;-76
2021/03/19 08:38:38;;;;;;;41.22;20.27;;;4.30;99.90;;;;;;6212831;23;20031;-67
2021/03/19 08:41:22;;;;;;;37.28;18.67;;;4.60;99.90;;;;;;6240430;23;20401;-66
2021/03/19 08:43:53;;;;;;;35.95;19.48;;;4.70;99.90;;;;;;6239385;23;20047;-67
2021/03/19 08:46:41;;;;;;;33.20;18.45;;;4.90;99.90;;;;;;6239895;23;20510;-65
2021/03/19 08:49:39;;;;;;;35.38;16.90;;;5.10;99.90;;;;;;6241399;23;20106;-63
2021/03/19 08:52:37;;;;;;;27.42;15.77;;;4.90;99.50;;;;;;6218047;23;20020;-63
2021/03/19 08:55:12;;;;;;;30.38;15.98;;;4.80;99.90;;;;;;6240453;23;20016;-67
2021/03/19 08:57:40;;;;;;;28.27;15.88;;;4.60;99.90;;;;;;6243277;23;20020;-70
2021/03/19 09:00:35;;;;;;;29.63;14.75;;;4.40;99.90;;;;;;6213831;23;20055;-64
2021/03/19 09:03:10;;;;;;;25.20;15.23;;;4.20;99.60;;;;;;6213172;23;20026;-63
2021/03/19 09:05:57;;;;;;;24.33;14.80;;;4.10;99.90;;;;;;6240146;23;20047;-64
2021/03/19 09:08:29;;;;;;;26.52;14.95;;;4.00;99.90;;;;;;6214131;23;20025;-63
2021/03/19 09:10:58;;;;;;;27.00;13.98;;;3.90;99.90;;;;;;6240551;23;20098;-63
2021/03/19 09:13:25;;;;;;;21.45;11.98;;;3.80;99.00;;;;;;6213939;23;20023;-69
2021/03/19 09:15:54;;;;;;;25.25;14.10;;;3.80;98.30;;;;;;6213793;23;20020;-68
2021/03/19 09:18:44;;;;;;;28.48;16.00;;;4.10;99.90;;;;;;6214206;23;20102;-63
2021/03/19 09:21:29;;;;;;;22.55;13.15;;;4.80;99.90;;;;;;6240585;23;20045;-67
2021/03/19 09:24:14;;;;;;;20.70;11.68;;;5.40;96.60;;;;;;6240134;23;20102;-66
2021/03/19 09:26:56;;;;;;;21.75;12.32;;;5.90;91.80;;;;;;6244833;23;20024;-67
2021/03/19 09:29:29;;;;;;;24.83;13.27;;;6.60;96.90;;;;;;6240699;23;20353;-69
2021/03/19 09:32:00;;;;;;;21.45;11.77;;;7.10;81.90;;;;;;6244192;23;20020;-70
2021/03/19 09:34:29;;;;;;;22.65;12.52;;;7.10;87.10;;;;;;6213318;23;20044;-68
2021/03/19 09:37:30;;;;;;;18.10;12.35;;;7.20;92.00;;;;;;6240327;23;20024;-68
2021/03/19 09:40:31;;;;;;;20.38;12.13;;;7.50;94.10;;;;;;6213782;23;20024;-67
2021/03/19 09:42:57;;;;;;;16.17;10.60;;;8.40;81.60;;;;;;6240269;23;20020;-71
2021/03/19 09:45:29;;;;;;;18.30;11.13;;;9.30;75.90;;;;;;6239835;23;20042;-69
2021/03/19 09:48:20;;;;;;;15.25;10.48;;;9.80;65.50;;;;;;6216153;23;20027;-69
2021/03/19 09:51:13;;;;;;;17.08;10.93;;;9.80;73.00;;;;;;6239034;23;20043;-65
2021/03/19 09:53:39;;;;;;;16.98;10.77;;;9.30;63.60;;;;;;6213996;23;20038;-65
2021/03/19 09:56:19;;;;;;;19.67;12.20;;;8.60;64.00;;;;;;6239852;23;20512;-70
2021/03/19 09:58:51;;;;;;;18.90;11.63;;;8.00;69.90;;;;;;6213503;23;20138;-67
2021/03/19 10:01:23;;;;;;;16.98;11.65;;;7.40;69.40;;;;;;6239791;23;20040;-70
2021/03/19 10:03:57;;;;;;;17.90;12.23;;;7.10;69.30;;;;;;6215895;23;20027;-68
2021/03/19 10:06:28;;;;;;;20.75;12.63;;;6.80;69.30;;;;;;6213060;23;20103;-70
2021/03/19 10:09:27;;;;;;;20.83;12.70;;;6.60;72.50;;;;;;6217263;23;20491;-67
2021/03/19 10:12:09;;;;;;;23.80;13.38;;;6.40;80.20;;;;;;6230008;23;20043;-71
2021/03/19 10:14:38;;;;;;;23.03;12.50;;;6.40;83.70;;;;;;6216542;23;20024;-70
2021/03/19 10:17:28;;;;;;;20.08;11.55;;;6.20;75.60;;;;;;6213038;23;20631;-70
2021/03/19 10:20:13;;;;;;;11.80;8.63;;;6.00;73.10;;;;;;6216347;23;20463;-70
2021/03/19 10:22:42;;;;;;;13.45;7.50;;;5.90;75.70;;;;;;6213293;23;20094;-70
2021/03/19 10:25:25;;;;;;;18.63;7.95;;;5.70;75.50;;;;;;6212820;23;20030;-67
2021/03/19 10:27:55;;;;;;;12.30;7.72;;;5.40;71.80;;;;;;6240124;23;20047;-69
2021/03/19 10:30:32;;;;;;;10.32;7.60;;;5.20;73.70;;;;;;6217389;23;20051;-67
2021/03/19 10:33:05;;;;;;;11.02;8.25;;;5.10;72.90;;;;;;6212941;23;20500;-69
2021/03/19 10:35:38;;;;;;;12.80;7.45;;;4.90;73.40;;;;;;6240381;23;20429;-69
2021/03/19 10:38:21;;;;;;;;;;;4.90;80.10;;;;;;6240582;23;20074;-67
2021/03/19 10:40:59;;;;;;;13.48;6.05;;;4.80;83.80;;;;;;6239386;23;19919;-71
2021/03/19 10:43:47;;;;;;;11.18;7.75;;;4.80;81.30;;;;;;6239967;23;20103;-70
2021/03/19 10:46:32;;;;;;;14.00;7.47;;;4.90;79.40;;;;;;6239368;23;20519;-69
2021/03/19 10:49:03;;;;;;;13.18;8.10;;;5.40;82.60;;;;;;6239227;23;20059;-71
2021/03/19 10:51:36;;;;;;;14.15;7.80;;;5.60;81.30;;;;;;6212700;23;20020;-76
2021/03/19 10:54:27;;;;;;;9.98;6.93;;;5.60;87.10;;;;;;6239067;23;20039;-72
2021/03/19 10:57:01;;;;;;;13.77;8.40;;;5.30;93.10;;;;;;6239174;23;20028;-76
2021/03/19 10:59:30;;;;;;;17.92;10.30;;;5.00;95.40;;;;;;6237839;23;20051;-81
2021/03/19 11:02:08;;;;;;;16.92;8.95;;;4.90;95.90;;;;;;6239771;23;20028;-73
2021/03/19 11:04:48;;;;;;;19.60;8.57;;;4.60;97.10;;;;;;6212472;23;20147;-78
2021/03/19 11:07:36;;;;;;;19.60;8.63;;;4.50;94.00;;;;;;6239862;23;20485;-74
2021/03/19 11:10:28;;;;;;;15.20;9.07;;;4.40;97.10;;;;;;6239451;23;20403;-79
2021/03/19 11:13:06;;;;;;;20.05;11.55;;;4.40;94.70;;;;;;6208977;23;20024;-70
2021/03/19 11:15:33;;;;;;;30.05;12.82;;;4.70;97.40;;;;;;6239051;23;20095;-68
2021/03/19 11:18:20;;;;;;;26.25;11.52;;;4.80;95.00;;;;;;6237394;23;20047;-71
2021/03/19 11:20:55;;;;;;;17.83;10.45;;;4.90;97.20;;;;;;6212392;23;20020;-70
2021/03/19 11:23:33;;;;;;;16.42;9.93;;;5.20;96.30;;;;;;6215824;23;20019;-70
2021/03/19 11:26:00;;;;;;;16.05;9.18;;;5.40;99.60;;;;;;6239401;23;20048;-72
2021/03/19 11:28:42;;;;;;;15.95;9.55;;;5.60;94.60;;;;;;6239408;23;20747;-72
2021/03/19 11:31:18;;;;;;;17.10;10.07;;;5.60;96.90;;;;;;6212848;23;20448;-71
2021/03/19 11:33:55;;;;;;;18.70;10.65;;;5.80;95.10;;;;;;6212626;23;20527;-66
2021/03/19 11:36:22;;;;;;;18.85;10.77;;;5.90;98.80;;;;;;6212529;23;20040;-67
2021/03/19 11:38:50;;;;;;;17.60;10.48;;;6.10;96.80;;;;;;6239153;23;20016;-74
2021/03/19 11:41:40;;;;;;;18.40;9.00;;;6.30;96.20;;;;;;6238956;23;20091;-76
2021/03/19 11:44:06;;;;;;;10.60;7.25;;;6.50;95.70;;;;;;6239478;23;20321;-72
2021/03/19 11:46:32;;;;;;;13.77;7.97;;;6.40;86.80;;;;;;6239150;23;20040;-67
2021/03/19 11:48:58;;;;;;;9.52;7.13;;;6.30;97.70;;;;;;6240208;23;20023;-69
2021/03/19 11:51:31;;;;;;;7.13;4.68;;;6.30;99.30;;;;;;6238717;23;20023;-69
2021/03/19 11:54:02;;;;;;;11.07;4.97;;;6.10;78.00;;;;;;6239783;23;20016;-69
2021/03/19 11:56:31;;;;;;;10.05;6.25;;;5.80;79.70;;;;;;6240509;23;20094;-68
2021/03/19 11:58:58;;;;;;;9.63;5.78;;;5.50;79.90;;;;;;6212217;23;20048;-69
2021/03/19 12:01:27;;;;;;;7.38;5.63;;;5.40;83.70;;;;;;6241858;23;20024;-70
2021/03/19 12:03:54;;;;;;;6.95;5.30;;;5.40;87.50;;;;;;6238695;23;20574;-68
2021/03/19 12:06:23;;;;;;;5.40;3.90;;;5.40;78.80;;;;;;6211764;23;20186;-69
2021/03/19 12:08:50;;;;;;;5.55;4.68;;;5.30;75.10;;;;;;6238480;23;20027;-70
2021/03/19 12:11:22;;;;;;;9.98;4.80;;;5.30;90.90;;;;;;6211779;23;20043;-69
2021/03/19 12:13:48;;;;;;;8.60;4.75;;;5.50;81.40;;;;;;6242861;23;20024;-70
2021/03/19 12:16:14;;;;;;;6.80;4.18;;;5.60;78.80;;;;;;6237678;23;20017;-68
2021/03/19 12:18:40;;;;;;;7.32;4.18;;;5.60;81.50;;;;;;6239241;23;20039;-69
2021/03/19 12:21:06;;;;;;;8.02;4.28;;;5.80;79.80;;;;;;6242484;23;20404;-66
2021/03/19 12:23:32;;;;;;;7.90;4.55;;;6.00;79.50;;;;;;6237488;23;20361;-65
2021/03/19 12:25:58;;;;;;;7.70;4.95;;;6.20;77.00;;;;;;6237755;23;20017;-65
2021/03/19 12:28:25;;;;;;;9.32;4.80;;;6.50;79.40;;;;;;6241817;23;20473;-65
2021/03/19 12:30:53;;;;;;;7.47;4.30;;;6.70;75.80;;;;;;6239044;23;20055;-63
2021/03/19 12:33:21;;;;;;;11.55;5.25;;;6.90;71.00;;;;;;6239441;23;20082;-65
2021/03/19 12:35:48;;;;;;;7.22;5.25;;;6.90;66.10;;;;;;6212713;23;20142;-64
2021/03/19 12:38:15;;;;;;;6.55;5.35;;;7.20;67.00;;;;;;6239342;23;20079;-63
2021/03/19 12:40:42;;;;;;;7.28;4.22;;;7.30;70.50;;;;;;6237302;23;20044;-63
2021/03/19 12:43:10;;;;;;;7.25;4.10;;;7.30;66.10;;;;;;6242815;23;20058;-63
2021/03/19 12:45:37;;;;;;;4.95;3.42;;;7.30;68.50;;;;;;6241224;23;20032;-63
2021/03/19 12:48:04;;;;;;;5.38;3.42;;;7.20;65.00;;;;;;6239192;23;20020;-63
2021/03/19 12:50:31;;;;;;;4.32;3.38;;;7.10;66.80;;;;;;6242143;23;20016;-63
2021/03/19 12:52:58;;;;;;;3.30;2.72;;;7.10;61.40;;;;;;6238841;23;20507;-62
2021/03/19 12:55:26;;;;;;;4.28;3.88;;;7.20;64.80;;;;;;6238839;23;20020;-63
2021/03/19 12:57:53;;;;;;;4.20;2.53;;;7.10;67.50;;;;;;6238869;23;20016;-64
2021/03/19 13:00:25;;;;;;;8.95;3.25;;;7.10;60.30;;;;;;6238736;23;20020;-63
2021/03/19 13:02:51;;;;;;;5.32;3.10;;;7.10;59.10;;;;;;6238540;23;20394;-64
2021/03/19 13:05:20;;;;;;;8.68;3.03;;;7.10;58.60;;;;;;6239157;23;20118;-63
2021/03/19 13:07:46;;;;;;;8.57;2.83;;;7.10;64.40;;;;;;6238291;23;20054;-67
2021/03/19 13:10:13;;;;;;;4.97;3.88;;;7.10;65.90;;;;;;6238587;23;20342;-67
2021/03/19 13:12:39;;;;;;;6.07;3.00;;;7.10;69.10;;;;;;6242245;23;20073;-67
2021/03/19 13:15:10;;;;;;;6.78;3.90;;;7.10;60.30;;;;;;6239448;23;20023;-68